createdAt,value
2022-12-03T00:01:13.469Z,22.58
2022-12-03T00:04:15.414Z,22.08
2022-12-03T00:07:17.373Z,22.48
2022-12-03T00:10:19.673Z,21.27
2022-12-03T00:13:21.625Z,22.40
2022-12-03T00:16:23.782Z,22.33
2022-12-03T00:19:25.936Z,21.95
2022-12-03T00:22:28.320Z,22.98
2022-12-03T00:25:30.339Z,22.48
2022-12-03T00:28:32.415Z,23.88
2022-12-03T00:31:34.459Z,22.30
2022-12-03T00:34:36.500Z,22.45
2022-12-03T00:37:38.586Z,22.95
2022-12-03T00:40:41.188Z,22.40
2022-12-03T00:43:43.234Z,21.35
2022-12-03T00:46:45.300Z,20.83
2022-12-03T00:49:47.666Z,21.08
2022-12-03T00:52:50.026Z,21.25
2022-12-03T00:55:52.088Z,20.33
2022-12-03T00:58:54.221Z,21.42
2022-12-03T01:01:56.540Z,20.60
2022-12-03T01:04:58.750Z,19.88
2022-12-03T01:08:01.009Z,19.77
2022-12-03T01:11:03.387Z,19.48
2022-12-03T01:14:07.092Z,19.23
2022-12-03T01:17:12.390Z,18.02
2022-12-03T01:20:18.784Z,20.33
2022-12-03T01:23:20.945Z,18.48
2022-12-03T01:26:23.336Z,18.77
2022-12-03T01:29:25.557Z,19.50
2022-12-03T01:32:27.521Z,19.55
2022-12-03T01:35:29.581Z,20.35
2022-12-03T01:38:31.815Z,17.40
2022-12-03T01:41:35.720Z,19.90
2022-12-03T01:44:40.036Z,19.08
2022-12-03T01:47:42.110Z,17.55
2022-12-03T01:50:45.512Z,18.40
2022-12-03T01:53:47.834Z,19.50
2022-12-03T01:56:50.057Z,20.00
2022-12-03T01:59:53.928Z,21.08
2022-12-03T02:03:01.805Z,20.95
2022-12-03T02:06:04.034Z,21.17
2022-12-03T02:09:08.609Z,22.27
2022-12-03T02:12:10.959Z,23.40
2022-12-03T02:15:13.205Z,24.10
2022-12-03T02:18:15.433Z,23.95
2022-12-03T02:21:23.210Z,24.88
2022-12-03T02:24:51.748Z,27.27
2022-12-03T02:27:55.471Z,25.50
2022-12-03T02:30:57.611Z,26.13
2022-12-03T02:33:59.659Z,25.60
2022-12-03T02:37:03.212Z,25.55
2022-12-03T02:40:10.466Z,24.10
2022-12-03T02:43:15.006Z,25.05
2022-12-03T02:46:17.093Z,25.80
2022-12-03T02:49:19.278Z,24.90
2022-12-03T02:52:21.845Z,24.35
2022-12-03T02:55:25.391Z,24.85
2022-12-03T02:58:30.831Z,23.67
2022-12-03T03:01:34.938Z,24.85
2022-12-03T03:04:37.405Z,26.08
2022-12-03T03:07:40.681Z,25.85
2022-12-03T03:10:43.843Z,25.73
2022-12-03T03:13:46.479Z,24.38
2022-12-03T03:16:55.983Z,24.02
2022-12-03T03:23:26.544Z,22.80
2022-12-03T03:26:28.647Z,24.10
2022-12-03T03:29:32.231Z,26.73
2022-12-03T03:32:34.880Z,25.13
2022-12-03T03:35:37.876Z,24.45
2022-12-03T03:38:40.891Z,23.23
2022-12-03T03:41:45.309Z,24.77
2022-12-03T03:44:48.207Z,24.75
2022-12-03T03:47:50.259Z,23.75
2022-12-03T03:50:52.570Z,23.42
2022-12-03T03:53:54.963Z,23.58
2022-12-03T03:56:57.412Z,23.63
2022-12-03T04:00:00.039Z,24.38
2022-12-03T04:03:04.034Z,23.75
2022-12-03T04:06:06.504Z,24.88
2022-12-03T04:09:08.462Z,24.15
2022-12-03T04:12:31.433Z,22.70
2022-12-03T04:15:33.735Z,24.20
2022-12-03T04:18:44.997Z,25.33
2022-12-03T04:22:05.542Z,23.05
2022-12-03T04:28:48.645Z,23.33
2022-12-03T04:32:09.647Z,24.02
2022-12-03T04:35:30.479Z,23.58
2022-12-03T04:38:32.621Z,23.10
2022-12-03T04:41:34.744Z,22.77
2022-12-03T04:44:36.804Z,24.30
2022-12-03T04:47:40.140Z,24.70
2022-12-03T04:50:42.312Z,23.88
2022-12-03T04:53:46.350Z,24.25
2022-12-03T04:56:48.559Z,22.88
2022-12-03T04:59:50.546Z,25.23
2022-12-03T05:02:52.792Z,24.90
2022-12-03T05:05:54.861Z,24.77
2022-12-03T05:08:56.884Z,24.52
2022-12-03T05:11:58.996Z,25.02
2022-12-03T05:15:01.743Z,25.85
2022-12-03T05:18:03.815Z,26.25
2022-12-03T05:21:05.933Z,23.90
2022-12-03T05:24:08.012Z,25.75
2022-12-03T05:27:09.994Z,24.70
2022-12-03T05:30:12.495Z,24.48
2022-12-03T05:33:14.726Z,25.20
2022-12-03T05:36:16.736Z,25.45
2022-12-03T05:39:18.716Z,24.20
2022-12-03T05:42:39.425Z,25.33
2022-12-03T05:45:43.075Z,25.50
2022-12-03T05:48:48.357Z,24.02
2022-12-03T05:51:53.726Z,24.13
2022-12-03T05:58:02.108Z,23.33
2022-12-03T06:01:04.765Z,23.60
2022-12-03T06:04:06.917Z,23.85
2022-12-03T06:07:13.816Z,24.48
2022-12-03T06:10:20.441Z,23.17
2022-12-03T06:13:22.385Z,23.67
2022-12-03T06:16:24.445Z,22.92
2022-12-03T06:19:26.496Z,24.17
2022-12-03T06:22:28.789Z,23.63
2022-12-03T06:25:30.871Z,24.83
2022-12-03T06:28:32.938Z,26.73
2022-12-03T06:31:34.981Z,26.58
2022-12-03T06:34:37.094Z,25.17
2022-12-03T06:37:39.149Z,26.35
2022-12-03T06:40:41.157Z,26.45
2022-12-03T06:43:43.284Z,27.63
2022-12-03T06:46:45.492Z,26.65
2022-12-03T06:49:47.684Z,25.73
2022-12-03T06:52:49.734Z,32.60
2022-12-03T06:55:51.681Z,32.60
2022-12-03T06:58:54.058Z,27.05
2022-12-03T07:01:56.086Z,26.02
2022-12-03T07:04:58.926Z,26.55
2022-12-03T07:08:01.170Z,27.75
2022-12-03T07:11:03.241Z,27.65
2022-12-03T07:14:07.084Z,26.73
2022-12-03T07:17:09.127Z,27.13
2022-12-03T07:20:11.679Z,26.77
2022-12-03T07:23:13.690Z,27.13
2022-12-03T07:26:15.745Z,27.33
2022-12-03T07:29:17.833Z,26.55
2022-12-03T07:32:19.852Z,26.63
2022-12-03T07:35:22.107Z,25.73
2022-12-03T07:38:24.084Z,27.10
2022-12-03T07:41:26.106Z,25.05
2022-12-03T07:44:28.496Z,26.08
2022-12-03T07:47:30.582Z,26.40
2022-12-03T07:50:32.680Z,24.75
2022-12-03T07:53:36.222Z,26.48
2022-12-03T07:56:38.204Z,26.10
2022-12-03T07:59:40.180Z,28.45
2022-12-03T08:02:42.464Z,25.95
2022-12-03T08:05:44.548Z,26.25
2022-12-03T08:08:46.935Z,27.23
2022-12-03T08:11:49.613Z,27.60
2022-12-03T08:14:52.004Z,26.80
2022-12-03T08:17:59.100Z,26.63
2022-12-03T08:21:01.090Z,26.05
2022-12-03T08:24:19.569Z,26.83
2022-12-03T08:27:23.899Z,28.25
2022-12-03T08:30:26.104Z,28.35
2022-12-03T08:33:33.621Z,27.05
2022-12-03T08:36:36.505Z,28.60
2022-12-03T08:39:45.923Z,26.70
2022-12-03T08:42:48.047Z,29.05
2022-12-03T08:45:52.184Z,28.33
2022-12-03T08:48:54.382Z,28.55
2022-12-03T08:52:00.487Z,27.70
2022-12-03T08:55:30.970Z,27.20
2022-12-03T08:58:48.012Z,27.58
2022-12-03T09:01:51.539Z,28.20
2022-12-03T09:04:54.863Z,27.85
2022-12-03T09:07:57.248Z,27.17
2022-12-03T09:10:59.237Z,27.85
2022-12-03T09:14:01.271Z,27.13
2022-12-03T09:17:03.734Z,27.35
2022-12-03T09:20:06.515Z,27.85
2022-12-03T09:23:08.903Z,26.88
2022-12-03T09:26:10.891Z,26.50
2022-12-03T09:29:13.526Z,26.63
2022-12-03T09:32:18.549Z,27.60
2022-12-03T09:35:20.983Z,27.23
2022-12-03T09:38:22.953Z,35.85
2022-12-03T09:41:26.199Z,29.05
2022-12-03T09:44:33.617Z,32.03
2022-12-03T09:47:35.658Z,27.10
2022-12-03T09:50:40.939Z,26.88
2022-12-03T09:53:43.071Z,26.77
2022-12-03T09:56:45.048Z,25.45
2022-12-03T09:59:47.641Z,26.48
2022-12-03T10:02:52.204Z,25.25
2022-12-03T10:05:54.977Z,25.67
2022-12-03T10:08:57.460Z,26.60
2022-12-03T10:12:00.179Z,25.52
2022-12-03T10:15:02.320Z,25.20
2022-12-03T10:18:19.411Z,26.27
2022-12-03T10:21:32.853Z,25.98
2022-12-03T10:24:36.248Z,25.92
2022-12-03T10:27:39.190Z,25.95
2022-12-03T10:30:55.424Z,26.88
2022-12-03T10:33:58.432Z,26.05
2022-12-03T10:37:14.203Z,25.65
2022-12-03T10:40:25.677Z,24.88
2022-12-03T10:43:27.675Z,25.05
2022-12-03T10:46:29.794Z,25.45
2022-12-03T10:49:31.910Z,24.55
2022-12-03T10:52:33.996Z,24.70
2022-12-03T10:55:39.791Z,24.02
2022-12-03T10:58:42.498Z,28.33
2022-12-03T11:01:45.162Z,28.98
2022-12-03T11:04:47.752Z,28.88
2022-12-03T11:07:50.140Z,29.10
2022-12-03T11:11:16.950Z,29.05
2022-12-03T11:14:56.844Z,30.63
2022-12-03T11:17:59.415Z,27.77
2022-12-03T11:21:16.654Z,28.63
2022-12-03T11:24:20.835Z,28.10
2022-12-03T11:27:22.890Z,28.83
2022-12-03T11:30:50.900Z,30.83
2022-12-03T11:34:18.622Z,28.27
2022-12-03T11:37:20.618Z,30.25
2022-12-03T11:40:22.595Z,30.65
2022-12-03T11:43:52.372Z,29.85
2022-12-03T11:46:55.661Z,29.88
2022-12-03T11:49:58.101Z,29.33
2022-12-03T11:53:01.997Z,29.30
2022-12-03T11:56:09.189Z,28.92
2022-12-03T11:59:12.914Z,28.92
2022-12-03T12:02:21.288Z,30.15
2022-12-03T12:05:29.740Z,28.33
2022-12-03T12:08:33.259Z,28.48
2022-12-03T12:11:37.529Z,29.23
2022-12-03T12:14:39.534Z,28.98
2022-12-03T12:17:41.554Z,29.75
2022-12-03T12:20:43.568Z,28.13
2022-12-03T12:23:45.632Z,29.33
2022-12-03T12:26:51.617Z,27.60
2022-12-03T12:29:59.489Z,27.58
2022-12-03T12:33:11.288Z,28.55
2022-12-03T12:36:13.365Z,26.35
2022-12-03T12:39:16.217Z,28.02
2022-12-03T12:42:31.823Z,28.92
2022-12-03T12:45:36.570Z,28.05
2022-12-03T12:48:39.393Z,28.00
2022-12-03T12:51:45.349Z,28.17
2022-12-03T12:54:47.400Z,28.35
2022-12-03T12:57:49.414Z,27.70
2022-12-03T13:00:54.575Z,28.67
2022-12-03T13:03:57.206Z,29.70
2022-12-03T13:06:59.973Z,28.50
2022-12-03T13:10:24.423Z,27.65
2022-12-03T13:13:43.965Z,27.35
2022-12-03T13:16:47.942Z,27.25
2022-12-03T13:19:58.190Z,28.88
2022-12-03T13:23:39.970Z,35.58
2022-12-03T13:26:41.982Z,29.77
2022-12-03T13:30:01.008Z,27.90
2022-12-03T13:33:16.035Z,26.85
2022-12-03T13:36:21.099Z,26.35
2022-12-03T13:39:33.473Z,27.77
2022-12-03T13:42:39.471Z,26.83
2022-12-03T13:45:47.271Z,27.13
2022-12-03T13:48:49.381Z,27.00
2022-12-03T13:51:51.700Z,26.50
2022-12-03T13:54:56.213Z,27.27
2022-12-03T13:57:58.765Z,27.20
2022-12-03T14:01:01.005Z,26.58
2022-12-03T14:04:03.891Z,25.70
2022-12-03T14:07:06.311Z,27.73
2022-12-03T14:10:11.436Z,26.52
2022-12-03T14:13:13.443Z,26.17
2022-12-03T14:16:15.422Z,25.58
2022-12-03T14:19:17.627Z,26.50
2022-12-03T14:22:23.358Z,27.17
2022-12-03T14:25:25.404Z,26.67
2022-12-03T14:28:27.565Z,25.90
2022-12-03T14:31:30.248Z,26.77
2022-12-03T14:34:32.369Z,25.80
2022-12-03T14:37:34.378Z,27.13
2022-12-03T14:40:36.397Z,27.23
2022-12-03T14:43:38.476Z,27.35
2022-12-03T14:46:40.433Z,27.20
2022-12-03T14:49:42.808Z,26.33
2022-12-03T14:52:44.875Z,27.45
2022-12-03T14:55:48.212Z,28.05
2022-12-03T14:58:51.234Z,27.88
2022-12-03T15:01:53.909Z,28.35
2022-12-03T15:04:56.018Z,26.17
2022-12-03T15:07:58.116Z,27.05
2022-12-03T15:11:00.351Z,32.40
2022-12-03T15:14:02.355Z,27.10
2022-12-03T15:17:04.459Z,27.15
2022-12-03T15:20:07.311Z,27.98
2022-12-03T15:23:14.032Z,28.60
2022-12-03T15:26:16.397Z,29.50
2022-12-03T15:29:19.772Z,29.05
2022-12-03T15:32:22.107Z,28.52
2022-12-03T15:35:24.492Z,27.40
2022-12-03T15:38:26.639Z,29.63
2022-12-03T15:41:31.507Z,27.58
2022-12-03T15:44:33.556Z,27.65
2022-12-03T15:47:35.540Z,30.75
2022-12-03T15:50:40.241Z,30.15
2022-12-03T15:53:42.817Z,30.42
2022-12-03T15:56:44.891Z,28.55
2022-12-03T15:59:47.341Z,29.95
2022-12-03T16:02:53.087Z,30.33
2022-12-03T16:05:55.359Z,28.42
2022-12-03T16:08:57.445Z,28.55
2022-12-03T16:11:59.501Z,28.90
2022-12-03T16:15:01.444Z,28.25
2022-12-03T16:18:03.824Z,28.45
2022-12-03T16:21:05.885Z,30.42
2022-12-03T16:24:07.983Z,32.30
2022-12-03T16:27:10.026Z,31.10
2022-12-03T16:30:12.644Z,32.22
2022-12-03T16:33:14.696Z,36.42
2022-12-03T16:36:16.821Z,39.47
2022-12-03T16:39:19.728Z,41.88
2022-12-03T16:42:22.612Z,43.20
2022-12-03T16:45:51.637Z,39.35
2022-12-03T16:48:56.527Z,39.70
2022-12-03T16:51:58.996Z,37.55
2022-12-03T16:55:01.592Z,38.53
2022-12-03T16:58:03.853Z,36.60
2022-12-03T17:01:06.731Z,40.33
2022-12-03T17:04:08.874Z,42.95
2022-12-03T17:07:11.214Z,38.92
2022-12-03T17:10:13.454Z,36.22
2022-12-03T17:13:15.736Z,36.75
2022-12-03T17:16:17.814Z,37.45
2022-12-03T17:19:19.838Z,39.58
2022-12-03T17:22:21.913Z,38.80
2022-12-03T17:25:25.510Z,45.85
2022-12-03T17:28:27.647Z,75.45
2022-12-03T17:31:29.804Z,56.63
2022-12-03T17:34:31.941Z,46.17
2022-12-03T17:37:34.441Z,38.50
2022-12-03T17:40:36.467Z,37.25
2022-12-03T17:43:38.456Z,34.30
2022-12-03T17:46:40.692Z,31.23
2022-12-03T17:49:42.827Z,30.52
2022-12-03T17:52:44.881Z,33.45
2022-12-03T17:55:47.076Z,32.25
2022-12-03T17:58:49.158Z,33.85
2022-12-03T18:01:51.823Z,35.10
2022-12-03T18:04:54.176Z,33.88
2022-12-03T18:07:56.364Z,34.10
2022-12-03T18:10:58.521Z,32.08
2022-12-03T18:14:01.445Z,34.08
2022-12-03T18:17:03.600Z,33.25
2022-12-03T18:20:06.637Z,32.95
2022-12-03T18:23:08.812Z,37.70
2022-12-03T18:26:11.250Z,35.17
2022-12-03T18:29:13.288Z,31.52
2022-12-03T18:32:28.164Z,34.42
2022-12-03T18:35:31.735Z,34.53
2022-12-03T18:38:34.371Z,34.47
2022-12-03T18:41:37.259Z,33.95
2022-12-03T18:44:42.684Z,35.75
2022-12-03T18:47:47.781Z,34.42
2022-12-03T18:50:50.455Z,37.35
2022-12-03T18:53:52.638Z,36.85
2022-12-03T18:56:54.692Z,36.35
2022-12-03T18:59:57.743Z,36.63
2022-12-03T19:03:04.414Z,36.75
2022-12-03T19:06:18.606Z,35.13
2022-12-03T19:09:21.359Z,35.88
2022-12-03T19:12:24.166Z,34.53
2022-12-03T19:15:26.583Z,36.92
2022-12-03T19:18:29.610Z,37.40
2022-12-03T19:21:33.829Z,37.15
2022-12-03T19:24:36.201Z,40.42
2022-12-03T19:27:38.235Z,41.25
2022-12-03T19:30:40.719Z,45.13
2022-12-03T19:33:44.127Z,38.78
2022-12-03T19:36:47.526Z,36.58
2022-12-03T19:39:58.543Z,35.92
2022-12-03T19:43:00.909Z,34.72
2022-12-03T19:46:22.037Z,35.10
2022-12-03T19:49:25.349Z,35.42
2022-12-03T19:52:30.961Z,34.88
2022-12-03T19:55:35.412Z,35.40
2022-12-03T19:58:39.255Z,35.22
2022-12-03T20:01:43.291Z,37.13
2022-12-03T20:04:45.934Z,34.75
2022-12-03T20:07:48.584Z,37.70
2022-12-03T20:10:51.057Z,36.70
2022-12-03T20:13:56.079Z,34.90
2022-12-03T20:16:58.649Z,35.65
2022-12-03T20:20:01.157Z,35.13
2022-12-03T20:23:03.740Z,35.88
2022-12-03T20:26:10.972Z,39.53
2022-12-03T20:29:14.338Z,38.42
2022-12-03T20:32:16.845Z,38.28
2022-12-03T20:35:19.429Z,39.20
2022-12-03T20:38:22.977Z,39.15
2022-12-03T20:41:25.473Z,41.47
2022-12-03T20:44:28.056Z,41.90
2022-12-03T20:47:30.473Z,39.53
2022-12-03T20:50:33.511Z,36.67
2022-12-03T20:53:37.442Z,38.83
2022-12-03T20:56:39.979Z,38.92
2022-12-03T20:59:42.592Z,42.55
2022-12-03T21:02:45.620Z,46.92
2022-12-03T21:05:48.435Z,44.97
2022-12-03T21:08:53.674Z,39.05
2022-12-03T21:11:56.172Z,39.13
2022-12-03T21:14:58.805Z,37.17
2022-12-03T21:18:01.041Z,40.80
2022-12-03T21:21:03.559Z,39.25
2022-12-03T21:24:06.016Z,37.22
2022-12-03T21:27:08.130Z,36.75
2022-12-03T21:30:10.462Z,37.13
2022-12-03T21:33:12.876Z,37.83
2022-12-03T21:36:16.914Z,36.53
2022-12-03T21:39:19.423Z,36.17
2022-12-03T21:42:36.534Z,34.38
2022-12-03T21:45:42.894Z,35.78
2022-12-03T21:48:45.549Z,35.50
2022-12-03T21:51:47.931Z,34.47
2022-12-03T21:54:52.616Z,35.90
2022-12-03T21:57:54.574Z,37.13
2022-12-03T22:00:56.676Z,37.85
2022-12-03T22:03:58.692Z,35.92
2022-12-03T22:07:00.675Z,38.38
2022-12-03T22:10:04.310Z,36.40
2022-12-03T22:13:06.503Z,38.75
2022-12-03T22:16:11.171Z,39.15
2022-12-03T22:19:13.217Z,38.55
2022-12-03T22:22:15.207Z,39.15
2022-12-03T22:25:17.368Z,37.45
2022-12-03T22:28:19.371Z,39.10
2022-12-03T22:31:21.422Z,37.70
2022-12-03T22:34:23.560Z,38.08
2022-12-03T22:37:25.585Z,37.80
2022-12-03T22:40:27.688Z,38.70
2022-12-03T22:43:29.774Z,39.35
2022-12-03T22:46:31.975Z,38.88
2022-12-03T22:49:34.273Z,40.22
2022-12-03T22:52:36.325Z,39.65
2022-12-03T22:55:38.961Z,39.67
2022-12-03T22:58:41.280Z,39.20
2022-12-03T23:01:43.317Z,39.83
2022-12-03T23:04:45.603Z,38.63
2022-12-03T23:07:47.685Z,41.13
2022-12-03T23:10:52.338Z,39.83
2022-12-03T23:13:54.462Z,41.20
2022-12-03T23:16:56.474Z,41.65
2022-12-03T23:19:58.541Z,41.10
2022-12-03T23:23:00.644Z,41.40
2022-12-03T23:26:07.856Z,39.25
2022-12-03T23:29:10.416Z,39.50
2022-12-03T23:32:12.539Z,39.22
2022-12-03T23:35:14.781Z,39.15
2022-12-03T23:38:17.265Z,38.13
2022-12-03T23:41:21.138Z,36.55
2022-12-03T23:44:23.218Z,35.47
2022-12-03T23:47:25.289Z,37.15
2022-12-03T23:50:28.305Z,34.35
2022-12-03T23:53:30.329Z,35.00
2022-12-03T23:56:32.514Z,34.92
2022-12-03T23:59:34.744Z,34.65
